sensor_id;sensor_type;location;lat;lon;timestamp;P1;durP1;ratioP1;P2;durP2;ratioP2
19687;SDS011;9993;52.008;4.732;2022-11-30T00:01:10;39.23;;;19.47;;
19687;SDS011;9993;52.008;4.732;2022-11-30T00:03:36;42.27;;;21.27;;
19687;SDS011;9993;52.008;4.732;2022-11-30T00:06:02;38.13;;;21.40;;
19687;SDS011;9993;52.008;4.732;2022-11-30T00:08:28;39.07;;;20.23;;
19687;SDS011;9993;52.008;4.732;2022-11-30T00:10:53;41.77;;;21.47;;
19687;SDS011;9993;52.008;4.732;2022-11-30T00:13:18;40.33;;;20.03;;
19687;SDS011;9993;52.008;4.732;2022-11-30T00:15:44;44.53;;;21.07;;
19687;SDS011;9993;52.008;4.732;2022-11-30T00:18:11;32.13;;;17.50;;
19687;SDS011;9993;52.008;4.732;2022-11-30T00:20:37;31.93;;;17.23;;
19687;SDS011;9993;52.008;4.732;2022-11-30T00:23:02;41.57;;;19.87;;
19687;SDS011;9993;52.008;4.732;2022-11-30T00:25:27;34.80;;;18.77;;
19687;SDS011;9993;52.008;4.732;2022-11-30T00:27:53;28.13;;;18.37;;
19687;SDS011;9993;52.008;4.732;2022-11-30T00:30:18;34.10;;;18.90;;
19687;SDS011;9993;52.008;4.732;2022-11-30T00:32:46;35.23;;;18.17;;
19687;SDS011;9993;52.008;4.732;2022-11-30T00:35:14;36.37;;;16.97;;
19687;SDS011;9993;52.008;4.732;2022-11-30T00:37:49;33.80;;;17.27;;
19687;SDS011;9993;52.008;4.732;2022-11-30T00:40:17;28.07;;;14.90;;
19687;SDS011;9993;52.008;4.732;2022-11-30T00:42:43;32.47;;;17.20;;
19687;SDS011;9993;52.008;4.732;2022-11-30T00:45:08;30.77;;;15.33;;
19687;SDS011;9993;52.008;4.732;2022-11-30T00:47:33;23.93;;;14.63;;
19687;SDS011;9993;52.008;4.732;2022-11-30T00:49:59;28.20;;;14.63;;
19687;SDS011;9993;52.008;4.732;2022-11-30T00:52:24;27.17;;;14.47;;
19687;SDS011;9993;52.008;4.732;2022-11-30T00:54:49;27.83;;;15.23;;
19687;SDS011;9993;52.008;4.732;2022-11-30T00:57:14;28.43;;;15.17;;
19687;SDS011;9993;52.008;4.732;2022-11-30T00:59:40;30.37;;;15.63;;
19687;SDS011;9993;52.008;4.732;2022-11-30T01:02:05;28.33;;;14.27;;
19687;SDS011;9993;52.008;4.732;2022-11-30T01:07:00;22.83;;;13.07;;
19687;SDS011;9993;52.008;4.732;2022-11-30T01:09:25;26.17;;;13.23;;
19687;SDS011;9993;52.008;4.732;2022-11-30T01:11:50;31.27;;;12.87;;
19687;SDS011;9993;52.008;4.732;2022-11-30T01:14:15;31.20;;;14.47;;
19687;SDS011;9993;52.008;4.732;2022-11-30T01:16:41;31.50;;;15.47;;
19687;SDS011;9993;52.008;4.732;2022-11-30T01:19:06;23.30;;;12.90;;
19687;SDS011;9993;52.008;4.732;2022-11-30T01:21:32;24.57;;;14.43;;
19687;SDS011;9993;52.008;4.732;2022-11-30T01:23:57;22.53;;;14.03;;
19687;SDS011;9993;52.008;4.732;2022-11-30T01:26:22;26.57;;;14.73;;
19687;SDS011;9993;52.008;4.732;2022-11-30T01:28:48;29.60;;;14.40;;
19687;SDS011;9993;52.008;4.732;2022-11-30T01:31:14;27.73;;;15.17;;
19687;SDS011;9993;52.008;4.732;2022-11-30T01:33:39;27.40;;;15.20;;
19687;SDS011;9993;52.008;4.732;2022-11-30T01:36:13;28.30;;;14.83;;
19687;SDS011;9993;52.008;4.732;2022-11-30T01:38:39;28.23;;;15.33;;
19687;SDS011;9993;52.008;4.732;2022-11-30T01:41:05;29.00;;;14.97;;
19687;SDS011;9993;52.008;4.732;2022-11-30T01:43:35;26.70;;;16.40;;
19687;SDS011;9993;52.008;4.732;2022-11-30T01:46:01;30.17;;;16.77;;
19687;SDS011;9993;52.008;4.732;2022-11-30T01:48:27;26.73;;;15.63;;
19687;SDS011;9993;52.008;4.732;2022-11-30T01:50:52;24.60;;;15.73;;
19687;SDS011;9993;52.008;4.732;2022-11-30T01:53:18;33.70;;;17.23;;
19687;SDS011;9993;52.008;4.732;2022-11-30T01:55:43;40.00;;;17.23;;
19687;SDS011;9993;52.008;4.732;2022-11-30T01:58:14;28.23;;;17.07;;
19687;SDS011;9993;52.008;4.732;2022-11-30T02:00:42;34.20;;;17.10;;
19687;SDS011;9993;52.008;4.732;2022-11-30T02:05:35;34.93;;;17.20;;
19687;SDS011;9993;52.008;4.732;2022-11-30T02:08:00;34.83;;;16.37;;
19687;SDS011;9993;52.008;4.732;2022-11-30T02:10:26;29.80;;;15.67;;
19687;SDS011;9993;52.008;4.732;2022-11-30T02:13:00;29.13;;;16.53;;
19687;SDS011;9993;52.008;4.732;2022-11-30T02:15:30;33.30;;;16.30;;
19687;SDS011;9993;52.008;4.732;2022-11-30T02:18:01;30.10;;;16.17;;
19687;SDS011;9993;52.008;4.732;2022-11-30T02:20:48;37.30;;;18.13;;
19687;SDS011;9993;52.008;4.732;2022-11-30T02:25:59;30.37;;;17.00;;
19687;SDS011;9993;52.008;4.732;2022-11-30T02:28:42;29.13;;;16.07;;
19687;SDS011;9993;52.008;4.732;2022-11-30T02:31:11;29.10;;;15.87;;
19687;SDS011;9993;52.008;4.732;2022-11-30T02:37:35;26.13;;;14.90;;
19687;SDS011;9993;52.008;4.732;2022-11-30T02:40:05;30.83;;;16.50;;
19687;SDS011;9993;52.008;4.732;2022-11-30T02:42:31;36.03;;;17.37;;
19687;SDS011;9993;52.008;4.732;2022-11-30T02:44:57;35.57;;;17.50;;
19687;SDS011;9993;52.008;4.732;2022-11-30T02:47:22;29.97;;;16.73;;
19687;SDS011;9993;52.008;4.732;2022-11-30T02:49:52;30.83;;;16.40;;
19687;SDS011;9993;52.008;4.732;2022-11-30T02:52:19;32.53;;;16.80;;
19687;SDS011;9993;52.008;4.732;2022-11-30T02:54:46;32.53;;;17.27;;
19687;SDS011;9993;52.008;4.732;2022-11-30T02:57:11;36.00;;;17.07;;
19687;SDS011;9993;52.008;4.732;2022-11-30T02:59:36;29.30;;;16.37;;
19687;SDS011;9993;52.008;4.732;2022-11-30T03:02:02;43.90;;;19.00;;
19687;SDS011;9993;52.008;4.732;2022-11-30T03:04:27;32.50;;;18.37;;
19687;SDS011;9993;52.008;4.732;2022-11-30T03:06:52;32.50;;;17.40;;
19687;SDS011;9993;52.008;4.732;2022-11-30T03:09:18;29.67;;;16.10;;
19687;SDS011;9993;52.008;4.732;2022-11-30T03:11:43;32.93;;;17.67;;
19687;SDS011;9993;52.008;4.732;2022-11-30T03:14:09;39.13;;;19.13;;
19687;SDS011;9993;52.008;4.732;2022-11-30T03:16:35;35.47;;;17.00;;
19687;SDS011;9993;52.008;4.732;2022-11-30T03:19:00;37.13;;;17.60;;
19687;SDS011;9993;52.008;4.732;2022-11-30T03:21:26;27.33;;;16.00;;
19687;SDS011;9993;52.008;4.732;2022-11-30T03:23:52;39.43;;;17.60;;
19687;SDS011;9993;52.008;4.732;2022-11-30T03:26:17;38.20;;;17.37;;
19687;SDS011;9993;52.008;4.732;2022-11-30T03:28:42;34.30;;;17.60;;
19687;SDS011;9993;52.008;4.732;2022-11-30T03:31:09;34.47;;;17.53;;
19687;SDS011;9993;52.008;4.732;2022-11-30T03:33:36;38.80;;;17.60;;
19687;SDS011;9993;52.008;4.732;2022-11-30T03:36:03;39.50;;;18.33;;
19687;SDS011;9993;52.008;4.732;2022-11-30T03:38:29;36.67;;;17.83;;
19687;SDS011;9993;52.008;4.732;2022-11-30T03:41:04;39.97;;;16.53;;
19687;SDS011;9993;52.008;4.732;2022-11-30T03:43:30;64.87;;;15.23;;
19687;SDS011;9993;52.008;4.732;2022-11-30T03:45:55;39.97;;;14.07;;
19687;SDS011;9993;52.008;4.732;2022-11-30T03:48:21;76.07;;;15.63;;
19687;SDS011;9993;52.008;4.732;2022-11-30T03:50:46;48.40;;;13.37;;
19687;SDS011;9993;52.008;4.732;2022-11-30T03:53:14;38.50;;;14.03;;
19687;SDS011;9993;52.008;4.732;2022-11-30T03:55:39;35.97;;;13.70;;
19687;SDS011;9993;52.008;4.732;2022-11-30T03:58:04;38.13;;;12.93;;
19687;SDS011;9993;52.008;4.732;2022-11-30T04:00:30;37.77;;;14.13;;
19687;SDS011;9993;52.008;4.732;2022-11-30T04:02:57;53.90;;;12.80;;
19687;SDS011;9993;52.008;4.732;2022-11-30T04:05:22;34.60;;;12.90;;
19687;SDS011;9993;52.008;4.732;2022-11-30T04:07:47;28.07;;;14.17;;
19687;SDS011;9993;52.008;4.732;2022-11-30T04:10:13;22.40;;;13.97;;
19687;SDS011;9993;52.008;4.732;2022-11-30T04:12:38;28.30;;;15.07;;
19687;SDS011;9993;52.008;4.732;2022-11-30T04:15:03;40.87;;;14.70;;
19687;SDS011;9993;52.008;4.732;2022-11-30T04:17:29;29.87;;;13.67;;
19687;SDS011;9993;52.008;4.732;2022-11-30T04:19:54;29.70;;;12.80;;
19687;SDS011;9993;52.008;4.732;2022-11-30T04:22:19;29.83;;;13.00;;
19687;SDS011;9993;52.008;4.732;2022-11-30T04:24:44;21.67;;;12.83;;
19687;SDS011;9993;52.008;4.732;2022-11-30T04:27:13;48.40;;;13.80;;
19687;SDS011;9993;52.008;4.732;2022-11-30T04:29:47;29.10;;;11.87;;
19687;SDS011;9993;52.008;4.732;2022-11-30T04:32:12;28.07;;;13.27;;
19687;SDS011;9993;52.008;4.732;2022-11-30T04:34:37;22.50;;;12.03;;
19687;SDS011;9993;52.008;4.732;2022-11-30T04:37:05;28.33;;;13.67;;
19687;SDS011;9993;52.008;4.732;2022-11-30T04:39:32;24.33;;;13.43;;
19687;SDS011;9993;52.008;4.732;2022-11-30T04:41:57;21.90;;;13.70;;
19687;SDS011;9993;52.008;4.732;2022-11-30T04:44:22;28.47;;;13.77;;
19687;SDS011;9993;52.008;4.732;2022-11-30T04:46:47;23.23;;;13.93;;
19687;SDS011;9993;52.008;4.732;2022-11-30T04:49:13;24.17;;;13.53;;
19687;SDS011;9993;52.008;4.732;2022-11-30T04:51:38;23.93;;;13.07;;
19687;SDS011;9993;52.008;4.732;2022-11-30T04:54:03;22.27;;;13.50;;
19687;SDS011;9993;52.008;4.732;2022-11-30T04:56:28;25.17;;;13.77;;
19687;SDS011;9993;52.008;4.732;2022-11-30T04:58:54;27.57;;;14.20;;
19687;SDS011;9993;52.008;4.732;2022-11-30T05:01:19;25.17;;;14.83;;
19687;SDS011;9993;52.008;4.732;2022-11-30T05:03:44;29.53;;;15.27;;
19687;SDS011;9993;52.008;4.732;2022-11-30T05:06:09;37.70;;;16.10;;
19687;SDS011;9993;52.008;4.732;2022-11-30T05:08:35;45.50;;;18.57;;
19687;SDS011;9993;52.008;4.732;2022-11-30T05:11:00;30.33;;;16.13;;
19687;SDS011;9993;52.008;4.732;2022-11-30T05:13:25;38.37;;;17.43;;
19687;SDS011;9993;52.008;4.732;2022-11-30T05:15:53;34.10;;;16.67;;
19687;SDS011;9993;52.008;4.732;2022-11-30T05:18:18;38.10;;;16.70;;
19687;SDS011;9993;52.008;4.732;2022-11-30T05:20:49;44.47;;;18.07;;
19687;SDS011;9993;52.008;4.732;2022-11-30T05:23:15;29.57;;;16.63;;
19687;SDS011;9993;52.008;4.732;2022-11-30T05:25:43;30.20;;;16.03;;
19687;SDS011;9993;52.008;4.732;2022-11-30T05:28:11;39.87;;;17.00;;
19687;SDS011;9993;52.008;4.732;2022-11-30T05:30:38;38.03;;;17.47;;
19687;SDS011;9993;52.008;4.732;2022-11-30T05:33:05;41.37;;;17.37;;
19687;SDS011;9993;52.008;4.732;2022-11-30T05:35:31;38.23;;;16.20;;
19687;SDS011;9993;52.008;4.732;2022-11-30T05:37:58;44.47;;;17.27;;
19687;SDS011;9993;52.008;4.732;2022-11-30T05:40:23;37.37;;;18.07;;
19687;SDS011;9993;52.008;4.732;2022-11-30T05:42:56;35.27;;;16.80;;
19687;SDS011;9993;52.008;4.732;2022-11-30T05:45:21;33.40;;;17.00;;
19687;SDS011;9993;52.008;4.732;2022-11-30T05:47:47;40.00;;;17.53;;
19687;SDS011;9993;52.008;4.732;2022-11-30T05:50:12;38.50;;;18.57;;
19687;SDS011;9993;52.008;4.732;2022-11-30T05:52:37;33.50;;;16.93;;
19687;SDS011;9993;52.008;4.732;2022-11-30T05:55:03;37.40;;;17.03;;
19687;SDS011;9993;52.008;4.732;2022-11-30T05:57:28;30.97;;;16.10;;
19687;SDS011;9993;52.008;4.732;2022-11-30T05:59:53;41.67;;;17.30;;
19687;SDS011;9993;52.008;4.732;2022-11-30T06:02:18;42.63;;;16.87;;
19687;SDS011;9993;52.008;4.732;2022-11-30T06:04:44;34.23;;;16.53;;
19687;SDS011;9993;52.008;4.732;2022-11-30T06:07:09;33.43;;;16.70;;
19687;SDS011;9993;52.008;4.732;2022-11-30T06:09:36;37.97;;;18.07;;
19687;SDS011;9993;52.008;4.732;2022-11-30T06:12:01;32.30;;;17.53;;
19687;SDS011;9993;52.008;4.732;2022-11-30T06:14:27;44.43;;;17.00;;
19687;SDS011;9993;52.008;4.732;2022-11-30T06:16:52;36.80;;;16.80;;
19687;SDS011;9993;52.008;4.732;2022-11-30T06:19:17;34.60;;;17.03;;
19687;SDS011;9993;52.008;4.732;2022-11-30T06:21:42;40.30;;;15.90;;
19687;SDS011;9993;52.008;4.732;2022-11-30T06:24:08;50.97;;;18.40;;
19687;SDS011;9993;52.008;4.732;2022-11-30T06:26:34;40.37;;;18.17;;
19687;SDS011;9993;52.008;4.732;2022-11-30T06:28:59;38.50;;;17.73;;
19687;SDS011;9993;52.008;4.732;2022-11-30T06:31:24;43.60;;;18.33;;
19687;SDS011;9993;52.008;4.732;2022-11-30T06:33:49;42.13;;;17.40;;
19687;SDS011;9993;52.008;4.732;2022-11-30T06:39:22;39.83;;;19.10;;
19687;SDS011;9993;52.008;4.732;2022-11-30T06:41:54;43.60;;;18.40;;
19687;SDS011;9993;52.008;4.732;2022-11-30T06:44:30;40.60;;;18.53;;
19687;SDS011;9993;52.008;4.732;2022-11-30T06:49:46;39.67;;;17.83;;
19687;SDS011;9993;52.008;4.732;2022-11-30T06:52:14;136.00;;;59.37;;
19687;SDS011;9993;52.008;4.732;2022-11-30T06:54:52;70.33;;;30.07;;
19687;SDS011;9993;52.008;4.732;2022-11-30T06:57:17;58.73;;;26.87;;
19687;SDS011;9993;52.008;4.732;2022-11-30T07:02:45;47.47;;;23.97;;
19687;SDS011;9993;52.008;4.732;2022-11-30T07:08:06;63.60;;;29.63;;
19687;SDS011;9993;52.008;4.732;2022-11-30T07:10:32;62.20;;;26.07;;
19687;SDS011;9993;52.008;4.732;2022-11-30T07:12:57;49.27;;;21.30;;
19687;SDS011;9993;52.008;4.732;2022-11-30T07:15:22;59.60;;;24.00;;
19687;SDS011;9993;52.008;4.732;2022-11-30T07:17:47;47.37;;;21.97;;
19687;SDS011;9993;52.008;4.732;2022-11-30T07:20:13;55.97;;;21.80;;
19687;SDS011;9993;52.008;4.732;2022-11-30T07:22:38;48.47;;;20.30;;
19687;SDS011;9993;52.008;4.732;2022-11-30T07:25:03;63.30;;;23.93;;
19687;SDS011;9993;52.008;4.732;2022-11-30T07:27:47;41.40;;;19.93;;
19687;SDS011;9993;52.008;4.732;2022-11-30T07:30:13;50.47;;;20.90;;
19687;SDS011;9993;52.008;4.732;2022-11-30T07:32:38;53.77;;;24.03;;
19687;SDS011;9993;52.008;4.732;2022-11-30T07:35:03;49.67;;;23.63;;
19687;SDS011;9993;52.008;4.732;2022-11-30T07:37:28;65.17;;;26.67;;
19687;SDS011;9993;52.008;4.732;2022-11-30T07:39:54;85.87;;;34.70;;
19687;SDS011;9993;52.008;4.732;2022-11-30T07:42:22;78.43;;;33.53;;
19687;SDS011;9993;52.008;4.732;2022-11-30T07:44:47;85.00;;;37.97;;
19687;SDS011;9993;52.008;4.732;2022-11-30T07:47:14;65.37;;;26.47;;
19687;SDS011;9993;52.008;4.732;2022-11-30T07:49:39;68.33;;;28.40;;
19687;SDS011;9993;52.008;4.732;2022-11-30T07:52:04;54.13;;;23.20;;
19687;SDS011;9993;52.008;4.732;2022-11-30T07:54:29;55.80;;;22.73;;
19687;SDS011;9993;52.008;4.732;2022-11-30T07:56:55;53.97;;;24.40;;
19687;SDS011;9993;52.008;4.732;2022-11-30T07:59:20;56.70;;;22.97;;
19687;SDS011;9993;52.008;4.732;2022-11-30T08:01:45;59.57;;;24.10;;
19687;SDS011;9993;52.008;4.732;2022-11-30T08:04:10;71.50;;;24.90;;
19687;SDS011;9993;52.008;4.732;2022-11-30T08:06:38;59.90;;;22.83;;
19687;SDS011;9993;52.008;4.732;2022-11-30T08:09:03;60.23;;;25.63;;
19687;SDS011;9993;52.008;4.732;2022-11-30T08:11:29;64.20;;;25.20;;
19687;SDS011;9993;52.008;4.732;2022-11-30T08:13:55;53.33;;;22.10;;
19687;SDS011;9993;52.008;4.732;2022-11-30T08:16:21;75.00;;;24.07;;
19687;SDS011;9993;52.008;4.732;2022-11-30T08:18:47;64.47;;;25.27;;
19687;SDS011;9993;52.008;4.732;2022-11-30T08:21:13;65.00;;;22.63;;
19687;SDS011;9993;52.008;4.732;2022-11-30T08:23:40;61.33;;;22.50;;
19687;SDS011;9993;52.008;4.732;2022-11-30T08:26:06;55.53;;;24.10;;
19687;SDS011;9993;52.008;4.732;2022-11-30T08:28:32;55.57;;;24.63;;
19687;SDS011;9993;52.008;4.732;2022-11-30T08:31:00;56.57;;;24.23;;
19687;SDS011;9993;52.008;4.732;2022-11-30T08:33:25;61.27;;;23.50;;
19687;SDS011;9993;52.008;4.732;2022-11-30T08:35:51;55.77;;;22.37;;
19687;SDS011;9993;52.008;4.732;2022-11-30T08:38:16;62.63;;;22.03;;
19687;SDS011;9993;52.008;4.732;2022-11-30T08:40:41;55.60;;;22.53;;
19687;SDS011;9993;52.008;4.732;2022-11-30T08:43:07;59.87;;;23.13;;
19687;SDS011;9993;52.008;4.732;2022-11-30T08:45:32;50.73;;;21.87;;
19687;SDS011;9993;52.008;4.732;2022-11-30T08:47:57;49.60;;;22.33;;
19687;SDS011;9993;52.008;4.732;2022-11-30T08:50:22;58.53;;;23.90;;
19687;SDS011;9993;52.008;4.732;2022-11-30T08:52:47;64.60;;;23.90;;
19687;SDS011;9993;52.008;4.732;2022-11-30T08:55:13;58.97;;;24.40;;
19687;SDS011;9993;52.008;4.732;2022-11-30T08:57:38;54.93;;;23.37;;
19687;SDS011;9993;52.008;4.732;2022-11-30T09:00:03;52.57;;;22.50;;
19687;SDS011;9993;52.008;4.732;2022-11-30T09:02:29;58.87;;;23.77;;
19687;SDS011;9993;52.008;4.732;2022-11-30T09:04:54;55.20;;;22.47;;
19687;SDS011;9993;52.008;4.732;2022-11-30T09:07:19;50.57;;;22.53;;
19687;SDS011;9993;52.008;4.732;2022-11-30T09:09:44;50.13;;;20.00;;
19687;SDS011;9993;52.008;4.732;2022-11-30T09:12:10;46.47;;;20.23;;
19687;SDS011;9993;52.008;4.732;2022-11-30T09:14:35;49.00;;;22.50;;
19687;SDS011;9993;52.008;4.732;2022-11-30T09:17:00;59.90;;;23.70;;
19687;SDS011;9993;52.008;4.732;2022-11-30T09:19:25;52.63;;;23.97;;
19687;SDS011;9993;52.008;4.732;2022-11-30T09:21:50;59.33;;;24.90;;
19687;SDS011;9993;52.008;4.732;2022-11-30T09:24:16;54.97;;;24.13;;
19687;SDS011;9993;52.008;4.732;2022-11-30T09:26:41;68.77;;;24.77;;
19687;SDS011;9993;52.008;4.732;2022-11-30T09:29:06;68.07;;;24.83;;
19687;SDS011;9993;52.008;4.732;2022-11-30T09:31:31;61.37;;;24.17;;
19687;SDS011;9993;52.008;4.732;2022-11-30T09:33:57;59.73;;;25.77;;
19687;SDS011;9993;52.008;4.732;2022-11-30T09:36:24;61.10;;;24.87;;
19687;SDS011;9993;52.008;4.732;2022-11-30T09:38:51;53.00;;;24.90;;
19687;SDS011;9993;52.008;4.732;2022-11-30T09:41:28;57.23;;;24.20;;
19687;SDS011;9993;52.008;4.732;2022-11-30T09:44:00;58.90;;;24.87;;
19687;SDS011;9993;52.008;4.732;2022-11-30T09:46:29;59.23;;;23.60;;
19687;SDS011;9993;52.008;4.732;2022-11-30T09:48:58;56.33;;;24.23;;
19687;SDS011;9993;52.008;4.732;2022-11-30T09:51:27;96.13;;;39.73;;
19687;SDS011;9993;52.008;4.732;2022-11-30T09:53:56;94.17;;;41.53;;
19687;SDS011;9993;52.008;4.732;2022-11-30T09:56:29;61.23;;;27.33;;
19687;SDS011;9993;52.008;4.732;2022-11-30T09:59:01;59.93;;;25.13;;
19687;SDS011;9993;52.008;4.732;2022-11-30T10:01:28;53.03;;;24.70;;
19687;SDS011;9993;52.008;4.732;2022-11-30T10:03:53;58.43;;;24.97;;
19687;SDS011;9993;52.008;4.732;2022-11-30T10:06:25;51.57;;;24.23;;
19687;SDS011;9993;52.008;4.732;2022-11-30T10:09:11;109.47;;;49.77;;
19687;SDS011;9993;52.008;4.732;2022-11-30T10:11:43;58.50;;;25.57;;
19687;SDS011;9993;52.008;4.732;2022-11-30T10:24:27;59.93;;;28.70;;
19687;SDS011;9993;52.008;4.732;2022-11-30T10:26:54;57.23;;;24.60;;
19687;SDS011;9993;52.008;4.732;2022-11-30T10:31:53;72.40;;;26.60;;
19687;SDS011;9993;52.008;4.732;2022-11-30T10:34:20;55.83;;;23.63;;
19687;SDS011;9993;52.008;4.732;2022-11-30T10:36:51;51.77;;;21.00;;
19687;SDS011;9993;52.008;4.732;2022-11-30T10:39:23;48.80;;;21.43;;
19687;SDS011;9993;52.008;4.732;2022-11-30T10:44:33;52.73;;;21.07;;
19687;SDS011;9993;52.008;4.732;2022-11-30T10:47:15;53.80;;;20.33;;
19687;SDS011;9993;52.008;4.732;2022-11-30T10:49:48;47.23;;;22.17;;
19687;SDS011;9993;52.008;4.732;2022-11-30T10:52:15;49.27;;;21.87;;
19687;SDS011;9993;52.008;4.732;2022-11-30T10:54:42;46.77;;;20.93;;
19687;SDS011;9993;52.008;4.732;2022-11-30T10:57:07;59.50;;;26.27;;
19687;SDS011;9993;52.008;4.732;2022-11-30T10:59:37;56.20;;;24.30;;
19687;SDS011;9993;52.008;4.732;2022-11-30T11:04:48;47.40;;;24.40;;
19687;SDS011;9993;52.008;4.732;2022-11-30T11:07:28;48.07;;;22.00;;
19687;SDS011;9993;52.008;4.732;2022-11-30T11:09:55;49.20;;;23.53;;
19687;SDS011;9993;52.008;4.732;2022-11-30T11:12:25;45.30;;;21.60;;
19687;SDS011;9993;52.008;4.732;2022-11-30T11:15:06;42.73;;;21.70;;
19687;SDS011;9993;52.008;4.732;2022-11-30T11:17:32;43.87;;;21.67;;
19687;SDS011;9993;52.008;4.732;2022-11-30T11:19:58;41.43;;;21.17;;
19687;SDS011;9993;52.008;4.732;2022-11-30T11:22:24;39.03;;;20.43;;
19687;SDS011;9993;52.008;4.732;2022-11-30T11:24:50;34.13;;;19.33;;
19687;SDS011;9993;52.008;4.732;2022-11-30T11:32:29;37.73;;;20.00;;
19687;SDS011;9993;52.008;4.732;2022-11-30T11:34:55;39.07;;;21.40;;
19687;SDS011;9993;52.008;4.732;2022-11-30T11:42:20;42.60;;;22.90;;
19687;SDS011;9993;52.008;4.732;2022-11-30T11:44:48;42.93;;;21.33;;
19687;SDS011;9993;52.008;4.732;2022-11-30T11:47:24;44.03;;;23.10;;
19687;SDS011;9993;52.008;4.732;2022-11-30T11:49:50;40.07;;;22.53;;
19687;SDS011;9993;52.008;4.732;2022-11-30T11:52:17;41.80;;;21.20;;
19687;SDS011;9993;52.008;4.732;2022-11-30T11:54:46;47.17;;;23.03;;
19687;SDS011;9993;52.008;4.732;2022-11-30T11:57:14;50.80;;;23.60;;
19687;SDS011;9993;52.008;4.732;2022-11-30T12:02:25;36.70;;;21.20;;
19687;SDS011;9993;52.008;4.732;2022-11-30T12:04:59;31.13;;;17.17;;
19687;SDS011;9993;52.008;4.732;2022-11-30T12:07:31;39.20;;;22.17;;
19687;SDS011;9993;52.008;4.732;2022-11-30T12:12:22;42.87;;;21.23;;
19687;SDS011;9993;52.008;4.732;2022-11-30T12:14:47;35.27;;;20.80;;
19687;SDS011;9993;52.008;4.732;2022-11-30T12:17:31;42.50;;;20.17;;
19687;SDS011;9993;52.008;4.732;2022-11-30T12:20:04;38.87;;;22.23;;
19687;SDS011;9993;52.008;4.732;2022-11-30T12:22:58;44.43;;;21.73;;
19687;SDS011;9993;52.008;4.732;2022-11-30T12:25:29;41.27;;;21.83;;
19687;SDS011;9993;52.008;4.732;2022-11-30T12:28:18;37.10;;;21.57;;
19687;SDS011;9993;52.008;4.732;2022-11-30T12:33:12;32.13;;;21.10;;
19687;SDS011;9993;52.008;4.732;2022-11-30T12:46:30;21.77;;;13.33;;
19687;SDS011;9993;52.008;4.732;2022-11-30T12:51:25;20.73;;;12.77;;
19687;SDS011;9993;52.008;4.732;2022-11-30T12:56:37;22.60;;;13.53;;
19687;SDS011;9993;52.008;4.732;2022-11-30T12:59:21;20.23;;;13.00;;
19687;SDS011;9993;52.008;4.732;2022-11-30T13:07:19;25.43;;;14.03;;
19687;SDS011;9993;52.008;4.732;2022-11-30T13:09:40;27.10;;;17.37;;
19687;SDS011;9993;52.008;4.732;2022-11-30T13:12:14;28.53;;;16.80;;
19687;SDS011;9993;52.008;4.732;2022-11-30T13:14:40;26.47;;;15.77;;
19687;SDS011;9993;52.008;4.732;2022-11-30T13:17:09;31.23;;;15.20;;
19687;SDS011;9993;52.008;4.732;2022-11-30T13:22:11;26.53;;;17.00;;
19687;SDS011;9993;52.008;4.732;2022-11-30T13:24:39;31.73;;;17.93;;
19687;SDS011;9993;52.008;4.732;2022-11-30T13:32:44;27.50;;;16.27;;
19687;SDS011;9993;52.008;4.732;2022-11-30T13:38:00;30.07;;;17.23;;
19687;SDS011;9993;52.008;4.732;2022-11-30T13:40:26;35.63;;;21.37;;
19687;SDS011;9993;52.008;4.732;2022-11-30T13:42:51;28.07;;;17.40;;
19687;SDS011;9993;52.008;4.732;2022-11-30T13:45:29;32.07;;;18.50;;
19687;SDS011;9993;52.008;4.732;2022-11-30T13:47:55;29.60;;;17.77;;
19687;SDS011;9993;52.008;4.732;2022-11-30T13:58:09;27.97;;;16.97;;
19687;SDS011;9993;52.008;4.732;2022-11-30T14:05:41;30.60;;;18.87;;
19687;SDS011;9993;52.008;4.732;2022-11-30T14:18:04;35.70;;;19.07;;
19687;SDS011;9993;52.008;4.732;2022-11-30T14:23:18;32.30;;;20.33;;
19687;SDS011;9993;52.008;4.732;2022-11-30T14:25:47;35.47;;;18.70;;
19687;SDS011;9993;52.008;4.732;2022-11-30T14:28:14;35.47;;;19.57;;
19687;SDS011;9993;52.008;4.732;2022-11-30T14:30:41;31.67;;;16.97;;
19687;SDS011;9993;52.008;4.732;2022-11-30T14:33:11;32.83;;;17.67;;
19687;SDS011;9993;52.008;4.732;2022-11-30T14:35:37;35.10;;;17.97;;
19687;SDS011;9993;52.008;4.732;2022-11-30T14:38:04;38.03;;;20.03;;
19687;SDS011;9993;52.008;4.732;2022-11-30T14:40:38;36.93;;;20.93;;
19687;SDS011;9993;52.008;4.732;2022-11-30T14:43:13;35.07;;;19.83;;
19687;SDS011;9993;52.008;4.732;2022-11-30T14:45:40;37.70;;;20.97;;
19687;SDS011;9993;52.008;4.732;2022-11-30T14:48:12;32.73;;;19.57;;
19687;SDS011;9993;52.008;4.732;2022-11-30T14:50:54;37.80;;;19.87;;
19687;SDS011;9993;52.008;4.732;2022-11-30T14:56:11;35.83;;;19.27;;
19687;SDS011;9993;52.008;4.732;2022-11-30T15:01:26;31.40;;;17.73;;
19687;SDS011;9993;52.008;4.732;2022-11-30T15:03:53;39.07;;;21.80;;
19687;SDS011;9993;52.008;4.732;2022-11-30T15:06:19;40.63;;;20.37;;
19687;SDS011;9993;52.008;4.732;2022-11-30T15:08:49;40.00;;;20.20;;
19687;SDS011;9993;52.008;4.732;2022-11-30T15:11:16;39.07;;;20.60;;
19687;SDS011;9993;52.008;4.732;2022-11-30T15:13:49;41.77;;;23.27;;
19687;SDS011;9993;52.008;4.732;2022-11-30T15:16:35;39.03;;;21.17;;
19687;SDS011;9993;52.008;4.732;2022-11-30T15:19:00;39.40;;;20.90;;
19687;SDS011;9993;52.008;4.732;2022-11-30T15:21:43;39.63;;;19.93;;
19687;SDS011;9993;52.008;4.732;2022-11-30T15:24:09;39.17;;;19.63;;
19687;SDS011;9993;52.008;4.732;2022-11-30T15:26:57;42.77;;;21.93;;
19687;SDS011;9993;52.008;4.732;2022-11-30T15:31:48;47.20;;;23.13;;
19687;SDS011;9993;52.008;4.732;2022-11-30T15:34:18;45.90;;;22.43;;
19687;SDS011;9993;52.008;4.732;2022-11-30T15:36:44;35.63;;;21.23;;
19687;SDS011;9993;52.008;4.732;2022-11-30T15:39:21;45.97;;;23.00;;
19687;SDS011;9993;52.008;4.732;2022-11-30T15:41:46;41.90;;;20.77;;
19687;SDS011;9993;52.008;4.732;2022-11-30T15:44:36;44.27;;;24.40;;
19687;SDS011;9993;52.008;4.732;2022-11-30T15:47:02;40.33;;;21.13;;
19687;SDS011;9993;52.008;4.732;2022-11-30T15:49:28;45.43;;;22.70;;
19687;SDS011;9993;52.008;4.732;2022-11-30T15:52:02;41.97;;;22.43;;
19687;SDS011;9993;52.008;4.732;2022-11-30T16:02:37;37.73;;;21.47;;
19687;SDS011;9993;52.008;4.732;2022-11-30T16:07:37;48.27;;;24.07;;
19687;SDS011;9993;52.008;4.732;2022-11-30T16:10:13;39.10;;;20.93;;
19687;SDS011;9993;52.008;4.732;2022-11-30T16:12:40;42.20;;;22.07;;
19687;SDS011;9993;52.008;4.732;2022-11-30T16:15:48;38.60;;;22.37;;
19687;SDS011;9993;52.008;4.732;2022-11-30T16:17:58;47.60;;;23.90;;
19687;SDS011;9993;52.008;4.732;2022-11-30T16:20:24;38.27;;;20.90;;
19687;SDS011;9993;52.008;4.732;2022-11-30T16:22:49;39.93;;;20.20;;
19687;SDS011;9993;52.008;4.732;2022-11-30T16:25:19;40.97;;;22.67;;
19687;SDS011;9993;52.008;4.732;2022-11-30T16:27:44;44.60;;;21.13;;
19687;SDS011;9993;52.008;4.732;2022-11-30T16:30:15;44.00;;;24.90;;
19687;SDS011;9993;52.008;4.732;2022-11-30T16:32:41;43.87;;;22.33;;
19687;SDS011;9993;52.008;4.732;2022-11-30T16:35:28;42.70;;;21.60;;
19687;SDS011;9993;52.008;4.732;2022-11-30T16:37:54;48.17;;;25.40;;
19687;SDS011;9993;52.008;4.732;2022-11-30T16:40:19;39.17;;;20.37;;
19687;SDS011;9993;52.008;4.732;2022-11-30T16:42:45;48.97;;;23.63;;
19687;SDS011;9993;52.008;4.732;2022-11-30T16:45:31;43.47;;;23.67;;
19687;SDS011;9993;52.008;4.732;2022-11-30T16:47:58;46.93;;;22.57;;
19687;SDS011;9993;52.008;4.732;2022-11-30T16:50:23;44.67;;;23.57;;
19687;SDS011;9993;52.008;4.732;2022-11-30T16:52:48;46.57;;;25.20;;